sensor_id;sensor_type;location;lat;lon;timestamp;P1;durP1;ratioP1;P2;durP2;ratioP2
66761;SDS011;53672;48.176;16.338;2023-12-22T00:02:18;1.90;;;0.40;;
66761;SDS011;53672;48.176;16.338;2023-12-22T00:07:21;1.98;;;0.50;;
66761;SDS011;53672;48.176;16.338;2023-12-22T00:12:23;2.20;;;0.50;;
66761;SDS011;53672;48.176;16.338;2023-12-22T00:17:24;2.25;;;0.40;;
66761;SDS011;53672;48.176;16.338;2023-12-22T00:22:27;2.70;;;0.40;;
66761;SDS011;53672;48.176;16.338;2023-12-22T00:27:29;2.53;;;0.40;;
66761;SDS011;53672;48.176;16.338;2023-12-22T00:32:30;1.90;;;0.40;;
66761;SDS011;53672;48.176;16.338;2023-12-22T00:37:33;1.50;;;0.40;;
66761;SDS011;53672;48.176;16.338;2023-12-22T00:42:35;2.90;;;0.30;;
66761;SDS011;53672;48.176;16.338;2023-12-22T00:47:36;1.60;;;0.40;;
66761;SDS011;53672;48.176;16.338;2023-12-22T00:52:39;2.30;;;0.50;;
66761;SDS011;53672;48.176;16.338;2023-12-22T00:57:41;4.78;;;0.40;;
66761;SDS011;53672;48.176;16.338;2023-12-22T01:02:43;3.10;;;0.50;;
66761;SDS011;53672;48.176;16.338;2023-12-22T01:07:46;2.08;;;0.30;;
66761;SDS011;53672;48.176;16.338;2023-12-22T01:12:48;1.98;;;0.40;;
66761;SDS011;53672;48.176;16.338;2023-12-22T01:17:50;2.35;;;0.30;;
66761;SDS011;53672;48.176;16.338;2023-12-22T01:22:53;2.03;;;0.35;;
66761;SDS011;53672;48.176;16.338;2023-12-22T01:27:54;3.20;;;0.43;;
66761;SDS011;53672;48.176;16.338;2023-12-22T01:32:56;2.92;;;0.40;;
66761;SDS011;53672;48.176;16.338;2023-12-22T01:37:59;1.65;;;0.30;;
66761;SDS011;53672;48.176;16.338;2023-12-22T01:43:00;1.50;;;0.40;;
66761;SDS011;53672;48.176;16.338;2023-12-22T01:48:03;2.50;;;0.40;;
66761;SDS011;53672;48.176;16.338;2023-12-22T01:53:06;2.50;;;0.40;;
66761;SDS011;53672;48.176;16.338;2023-12-22T01:58:08;2.33;;;0.40;;
66761;SDS011;53672;48.176;16.338;2023-12-22T02:03:11;1.65;;;0.40;;
66761;SDS011;53672;48.176;16.338;2023-12-22T02:08:15;1.80;;;0.30;;
66761;SDS011;53672;48.176;16.338;2023-12-22T02:13:19;2.55;;;0.30;;
66761;SDS011;53672;48.176;16.338;2023-12-22T02:18:21;2.43;;;0.30;;
66761;SDS011;53672;48.176;16.338;2023-12-22T02:23:29;1.70;;;0.30;;
66761;SDS011;53672;48.176;16.338;2023-12-22T02:28:30;2.10;;;0.40;;
66761;SDS011;53672;48.176;16.338;2023-12-22T02:33:34;1.77;;;0.40;;
66761;SDS011;53672;48.176;16.338;2023-12-22T02:38:41;2.10;;;0.40;;
66761;SDS011;53672;48.176;16.338;2023-12-22T02:43:44;3.23;;;0.40;;
66761;SDS011;53672;48.176;16.338;2023-12-22T02:48:46;5.15;;;0.60;;
66761;SDS011;53672;48.176;16.338;2023-12-22T02:53:49;5.50;;;0.60;;
66761;SDS011;53672;48.176;16.338;2023-12-22T02:58:50;3.88;;;0.60;;
66761;SDS011;53672;48.176;16.338;2023-12-22T03:03:52;2.63;;;0.50;;
66761;SDS011;53672;48.176;16.338;2023-12-22T03:08:55;5.17;;;0.77;;
66761;SDS011;53672;48.176;16.338;2023-12-22T03:13:56;4.85;;;0.80;;
66761;SDS011;53672;48.176;16.338;2023-12-22T03:18:58;3.08;;;0.40;;
66761;SDS011;53672;48.176;16.338;2023-12-22T03:24:01;4.32;;;0.60;;
66761;SDS011;53672;48.176;16.338;2023-12-22T03:29:02;2.60;;;0.30;;
66761;SDS011;53672;48.176;16.338;2023-12-22T03:34:04;2.17;;;0.40;;
66761;SDS011;53672;48.176;16.338;2023-12-22T03:39:07;2.55;;;0.40;;
66761;SDS011;53672;48.176;16.338;2023-12-22T03:44:08;3.15;;;0.50;;
66761;SDS011;53672;48.176;16.338;2023-12-22T03:49:10;3.95;;;0.57;;
66761;SDS011;53672;48.176;16.338;2023-12-22T03:54:13;4.20;;;0.60;;
66761;SDS011;53672;48.176;16.338;2023-12-22T03:59:16;3.87;;;0.60;;
66761;SDS011;53672;48.176;16.338;2023-12-22T04:04:18;2.70;;;0.40;;
66761;SDS011;53672;48.176;16.338;2023-12-22T04:09:23;1.80;;;0.40;;
66761;SDS011;53672;48.176;16.338;2023-12-22T04:14:25;3.95;;;0.40;;
66761;SDS011;53672;48.176;16.338;2023-12-22T04:19:26;2.83;;;0.40;;
66761;SDS011;53672;48.176;16.338;2023-12-22T04:24:29;2.30;;;0.40;;
66761;SDS011;53672;48.176;16.338;2023-12-22T04:29:31;3.00;;;0.45;;
66761;SDS011;53672;48.176;16.338;2023-12-22T04:34:32;1.92;;;0.40;;
66761;SDS011;53672;48.176;16.338;2023-12-22T04:39:35;2.15;;;0.60;;
66761;SDS011;53672;48.176;16.338;2023-12-22T04:44:37;3.92;;;0.60;;
66761;SDS011;53672;48.176;16.338;2023-12-22T04:49:38;3.30;;;0.50;;
66761;SDS011;53672;48.176;16.338;2023-12-22T04:54:41;2.58;;;0.45;;
66761;SDS011;53672;48.176;16.338;2023-12-22T04:59:43;2.45;;;0.57;;
66761;SDS011;53672;48.176;16.338;2023-12-22T05:04:45;1.75;;;0.50;;
66761;SDS011;53672;48.176;16.338;2023-12-22T05:09:47;4.25;;;0.60;;
66761;SDS011;53672;48.176;16.338;2023-12-22T05:14:49;3.00;;;0.50;;
66761;SDS011;53672;48.176;16.338;2023-12-22T05:19:51;3.42;;;0.60;;
66761;SDS011;53672;48.176;16.338;2023-12-22T05:24:54;5.20;;;0.50;;
66761;SDS011;53672;48.176;16.338;2023-12-22T05:29:55;4.38;;;0.60;;
66761;SDS011;53672;48.176;16.338;2023-12-22T05:35:01;2.47;;;0.55;;
66761;SDS011;53672;48.176;16.338;2023-12-22T05:40:04;4.03;;;0.73;;
66761;SDS011;53672;48.176;16.338;2023-12-22T05:45:07;4.93;;;0.80;;
66761;SDS011;53672;48.176;16.338;2023-12-22T05:50:11;3.60;;;0.73;;
66761;SDS011;53672;48.176;16.338;2023-12-22T05:55:14;7.05;;;1.00;;
66761;SDS011;53672;48.176;16.338;2023-12-22T06:00:16;4.55;;;0.88;;
66761;SDS011;53672;48.176;16.338;2023-12-22T06:05:17;5.73;;;0.90;;
66761;SDS011;53672;48.176;16.338;2023-12-22T06:10:20;3.40;;;0.70;;
66761;SDS011;53672;48.176;16.338;2023-12-22T06:15:22;7.28;;;0.98;;
66761;SDS011;53672;48.176;16.338;2023-12-22T06:20:23;5.90;;;0.90;;
66761;SDS011;53672;48.176;16.338;2023-12-22T06:25:27;6.22;;;1.00;;
66761;SDS011;53672;48.176;16.338;2023-12-22T06:30:29;4.87;;;0.80;;
66761;SDS011;53672;48.176;16.338;2023-12-22T06:35:31;3.08;;;0.70;;
66761;SDS011;53672;48.176;16.338;2023-12-22T06:40:35;3.13;;;0.60;;
66761;SDS011;53672;48.176;16.338;2023-12-22T06:45:37;2.97;;;0.70;;
66761;SDS011;53672;48.176;16.338;2023-12-22T06:50:39;4.25;;;0.90;;
66761;SDS011;53672;48.176;16.338;2023-12-22T06:55:46;3.30;;;0.60;;
66761;SDS011;53672;48.176;16.338;2023-12-22T07:00:47;2.10;;;0.55;;
66761;SDS011;53672;48.176;16.338;2023-12-22T07:05:49;2.90;;;0.80;;
66761;SDS011;53672;48.176;16.338;2023-12-22T07:10:52;3.72;;;0.73;;
66761;SDS011;53672;48.176;16.338;2023-12-22T07:15:53;3.78;;;0.70;;
66761;SDS011;53672;48.176;16.338;2023-12-22T07:20:55;3.23;;;0.67;;
66761;SDS011;53672;48.176;16.338;2023-12-22T07:25:58;3.72;;;0.60;;
66761;SDS011;53672;48.176;16.338;2023-12-22T07:31:00;3.08;;;0.82;;
66761;SDS011;53672;48.176;16.338;2023-12-22T07:36:01;4.38;;;0.80;;
66761;SDS011;53672;48.176;16.338;2023-12-22T07:41:04;2.08;;;0.50;;
66761;SDS011;53672;48.176;16.338;2023-12-22T07:46:06;4.00;;;0.80;;
66761;SDS011;53672;48.176;16.338;2023-12-22T07:51:09;3.10;;;0.70;;
66761;SDS011;53672;48.176;16.338;2023-12-22T07:56:12;3.63;;;0.88;;
66761;SDS011;53672;48.176;16.338;2023-12-22T08:01:14;2.88;;;0.93;;
66761;SDS011;53672;48.176;16.338;2023-12-22T08:06:16;2.67;;;0.60;;
66761;SDS011;53672;48.176;16.338;2023-12-22T08:11:19;3.30;;;0.80;;
66761;SDS011;53672;48.176;16.338;2023-12-22T08:16:20;5.60;;;1.50;;
66761;SDS011;53672;48.176;16.338;2023-12-22T08:21:22;3.95;;;1.30;;
66761;SDS011;53672;48.176;16.338;2023-12-22T08:26:25;3.95;;;1.40;;
66761;SDS011;53672;48.176;16.338;2023-12-22T08:31:27;4.28;;;1.00;;
66761;SDS011;53672;48.176;16.338;2023-12-22T08:36:28;4.60;;;1.30;;
66761;SDS011;53672;48.176;16.338;2023-12-22T08:41:32;3.00;;;0.80;;
66761;SDS011;53672;48.176;16.338;2023-12-22T08:46:36;4.15;;;0.82;;
66761;SDS011;53672;48.176;16.338;2023-12-22T08:51:37;3.70;;;1.58;;
66761;SDS011;53672;48.176;16.338;2023-12-22T08:56:40;3.55;;;0.93;;
66761;SDS011;53672;48.176;16.338;2023-12-22T09:01:42;2.97;;;0.90;;
66761;SDS011;53672;48.176;16.338;2023-12-22T09:06:44;2.78;;;0.73;;
66761;SDS011;53672;48.176;16.338;2023-12-22T09:11:47;3.55;;;0.90;;
66761;SDS011;53672;48.176;16.338;2023-12-22T09:16:48;3.08;;;0.70;;
66761;SDS011;53672;48.176;16.338;2023-12-22T09:21:53;2.30;;;0.60;;
66761;SDS011;53672;48.176;16.338;2023-12-22T09:26:56;2.40;;;0.80;;
66761;SDS011;53672;48.176;16.338;2023-12-22T09:32:02;3.35;;;0.80;;
66761;SDS011;53672;48.176;16.338;2023-12-22T09:37:04;3.20;;;0.90;;
66761;SDS011;53672;48.176;16.338;2023-12-22T09:42:07;3.10;;;0.70;;
66761;SDS011;53672;48.176;16.338;2023-12-22T09:47:09;2.88;;;0.57;;
66761;SDS011;53672;48.176;16.338;2023-12-22T09:52:12;2.50;;;0.67;;
66761;SDS011;53672;48.176;16.338;2023-12-22T09:57:17;3.13;;;0.80;;
66761;SDS011;53672;48.176;16.338;2023-12-22T10:02:20;3.63;;;0.65;;
66761;SDS011;53672;48.176;16.338;2023-12-22T10:07:22;3.67;;;0.60;;
66761;SDS011;53672;48.176;16.338;2023-12-22T10:12:26;3.33;;;0.70;;
66761;SDS011;53672;48.176;16.338;2023-12-22T10:17:30;2.23;;;0.40;;
66761;SDS011;53672;48.176;16.338;2023-12-22T10:22:32;2.83;;;0.63;;
66761;SDS011;53672;48.176;16.338;2023-12-22T10:27:36;2.88;;;0.65;;
66761;SDS011;53672;48.176;16.338;2023-12-22T10:32:39;3.13;;;0.60;;
66761;SDS011;53672;48.176;16.338;2023-12-22T10:37:42;2.40;;;0.57;;
66761;SDS011;53672;48.176;16.338;2023-12-22T10:42:45;3.40;;;0.90;;
66761;SDS011;53672;48.176;16.338;2023-12-22T10:47:48;2.38;;;0.68;;
66761;SDS011;53672;48.176;16.338;2023-12-22T10:52:50;3.50;;;0.70;;
66761;SDS011;53672;48.176;16.338;2023-12-22T10:57:54;2.50;;;0.88;;
66761;SDS011;53672;48.176;16.338;2023-12-22T11:02:57;3.10;;;0.70;;
66761;SDS011;53672;48.176;16.338;2023-12-22T11:08:02;3.17;;;0.80;;
66761;SDS011;53672;48.176;16.338;2023-12-22T11:13:09;2.97;;;0.90;;
66761;SDS011;53672;48.176;16.338;2023-12-22T11:18:13;3.47;;;0.80;;
66761;SDS011;53672;48.176;16.338;2023-12-22T11:23:17;2.60;;;0.70;;
66761;SDS011;53672;48.176;16.338;2023-12-22T11:28:21;2.80;;;0.68;;
66761;SDS011;53672;48.176;16.338;2023-12-22T11:33:25;3.27;;;0.70;;
66761;SDS011;53672;48.176;16.338;2023-12-22T11:38:27;2.55;;;0.57;;
66761;SDS011;53672;48.176;16.338;2023-12-22T11:43:30;2.17;;;0.30;;
66761;SDS011;53672;48.176;16.338;2023-12-22T11:48:34;1.75;;;0.30;;
66761;SDS011;53672;48.176;16.338;2023-12-22T11:53:37;1.65;;;0.38;;
66761;SDS011;53672;48.176;16.338;2023-12-22T11:58:40;2.00;;;0.50;;
66761;SDS011;53672;48.176;16.338;2023-12-22T12:03:47;1.77;;;0.40;;
66761;SDS011;53672;48.176;16.338;2023-12-22T12:08:51;4.07;;;0.70;;
66761;SDS011;53672;48.176;16.338;2023-12-22T12:13:54;3.00;;;0.70;;
66761;SDS011;53672;48.176;16.338;2023-12-22T12:19:11;3.85;;;1.30;;
66761;SDS011;53672;48.176;16.338;2023-12-22T12:24:13;6.60;;;2.27;;
66761;SDS011;53672;48.176;16.338;2023-12-22T12:29:16;4.07;;;1.23;;
66761;SDS011;53672;48.176;16.338;2023-12-22T12:34:18;3.15;;;1.10;;
66761;SDS011;53672;48.176;16.338;2023-12-22T12:39:20;3.53;;;0.90;;
66761;SDS011;53672;48.176;16.338;2023-12-22T12:44:30;6.40;;;2.40;;
66761;SDS011;53672;48.176;16.338;2023-12-22T12:49:33;5.90;;;1.40;;
66761;SDS011;53672;48.176;16.338;2023-12-22T12:54:34;3.25;;;0.90;;
66761;SDS011;53672;48.176;16.338;2023-12-22T12:59:37;3.78;;;1.08;;
66761;SDS011;53672;48.176;16.338;2023-12-22T13:04:39;2.88;;;0.68;;
66761;SDS011;53672;48.176;16.338;2023-12-22T13:09:40;3.40;;;0.60;;
66761;SDS011;53672;48.176;16.338;2023-12-22T13:14:46;3.97;;;0.53;;
66761;SDS011;53672;48.176;16.338;2023-12-22T13:19:48;2.47;;;0.60;;
66761;SDS011;53672;48.176;16.338;2023-12-22T13:24:54;2.50;;;0.40;;
66761;SDS011;53672;48.176;16.338;2023-12-22T13:29:58;2.97;;;0.70;;
66761;SDS011;53672;48.176;16.338;2023-12-22T13:35:00;3.83;;;1.30;;
66761;SDS011;53672;48.176;16.338;2023-12-22T13:40:02;3.53;;;0.87;;
66761;SDS011;53672;48.176;16.338;2023-12-22T13:45:11;4.53;;;0.90;;
66761;SDS011;53672;48.176;16.338;2023-12-22T13:50:13;3.35;;;0.80;;
66761;SDS011;53672;48.176;16.338;2023-12-22T13:55:16;5.13;;;0.80;;
66761;SDS011;53672;48.176;16.338;2023-12-22T14:00:26;11.05;;;2.90;;
66761;SDS011;53672;48.176;16.338;2023-12-22T14:05:28;4.50;;;1.10;;
66761;SDS011;53672;48.176;16.338;2023-12-22T14:10:30;5.10;;;1.00;;
66761;SDS011;53672;48.176;16.338;2023-12-22T14:15:33;6.15;;;1.30;;
66761;SDS011;53672;48.176;16.338;2023-12-22T14:20:36;2.95;;;0.70;;
66761;SDS011;53672;48.176;16.338;2023-12-22T14:25:38;3.35;;;0.57;;
66761;SDS011;53672;48.176;16.338;2023-12-22T14:30:41;3.80;;;0.80;;
66761;SDS011;53672;48.176;16.338;2023-12-22T14:35:42;3.42;;;0.70;;
66761;SDS011;53672;48.176;16.338;2023-12-22T14:40:44;3.05;;;0.43;;
66761;SDS011;53672;48.176;16.338;2023-12-22T14:45:47;3.92;;;1.10;;
66761;SDS011;53672;48.176;16.338;2023-12-22T14:50:48;2.20;;;0.55;;
66761;SDS011;53672;48.176;16.338;2023-12-22T14:55:50;3.90;;;0.50;;
66761;SDS011;53672;48.176;16.338;2023-12-22T15:00:54;3.38;;;0.70;;
66761;SDS011;53672;48.176;16.338;2023-12-22T15:05:56;1.77;;;0.30;;
66761;SDS011;53672;48.176;16.338;2023-12-22T15:10:58;3.22;;;0.50;;
66761;SDS011;53672;48.176;16.338;2023-12-22T15:16:05;3.22;;;0.57;;
66761;SDS011;53672;48.176;16.338;2023-12-22T15:21:06;2.03;;;0.50;;
66761;SDS011;53672;48.176;16.338;2023-12-22T15:26:08;3.35;;;0.57;;
66761;SDS011;53672;48.176;16.338;2023-12-22T15:31:22;5.40;;;0.55;;
66761;SDS011;53672;48.176;16.338;2023-12-22T15:36:24;2.42;;;0.60;;
66761;SDS011;53672;48.176;16.338;2023-12-22T15:41:28;2.13;;;0.60;;
66761;SDS011;53672;48.176;16.338;2023-12-22T15:46:32;2.97;;;0.50;;
66761;SDS011;53672;48.176;16.338;2023-12-22T15:51:33;2.42;;;0.40;;
66761;SDS011;53672;48.176;16.338;2023-12-22T15:56:35;2.75;;;0.40;;
66761;SDS011;53672;48.176;16.338;2023-12-22T16:01:43;1.98;;;0.50;;
66761;SDS011;53672;48.176;16.338;2023-12-22T16:06:45;2.53;;;0.40;;
66761;SDS011;53672;48.176;16.338;2023-12-22T16:11:46;1.73;;;0.30;;
66761;SDS011;53672;48.176;16.338;2023-12-22T16:16:53;1.75;;;0.30;;
66761;SDS011;53672;48.176;16.338;2023-12-22T16:21:55;1.88;;;0.40;;
66761;SDS011;53672;48.176;16.338;2023-12-22T16:26:58;2.28;;;0.35;;
66761;SDS011;53672;48.176;16.338;2023-12-22T16:32:01;1.48;;;0.40;;
66761;SDS011;53672;48.176;16.338;2023-12-22T16:37:02;1.53;;;0.30;;
66761;SDS011;53672;48.176;16.338;2023-12-22T16:42:04;3.55;;;0.35;;
66761;SDS011;53672;48.176;16.338;2023-12-22T16:47:09;2.03;;;0.40;;
66761;SDS011;53672;48.176;16.338;2023-12-22T16:52:11;4.30;;;0.50;;
66761;SDS011;53672;48.176;16.338;2023-12-22T16:57:12;2.50;;;0.50;;
66761;SDS011;53672;48.176;16.338;2023-12-22T17:02:15;3.63;;;0.50;;
66761;SDS011;53672;48.176;16.338;2023-12-22T17:07:17;1.70;;;0.40;;
66761;SDS011;53672;48.176;16.338;2023-12-22T17:12:19;2.95;;;0.50;;
66761;SDS011;53672;48.176;16.338;2023-12-22T17:17:22;3.05;;;0.50;;
66761;SDS011;53672;48.176;16.338;2023-12-22T17:22:23;2.35;;;0.50;;
66761;SDS011;53672;48.176;16.338;2023-12-22T17:27:25;1.97;;;0.50;;
66761;SDS011;53672;48.176;16.338;2023-12-22T17:32:28;2.33;;;0.50;;
66761;SDS011;53672;48.176;16.338;2023-12-22T17:37:30;2.67;;;0.50;;
66761;SDS011;53672;48.176;16.338;2023-12-22T17:42:31;2.30;;;0.40;;
66761;SDS011;53672;48.176;16.338;2023-12-22T17:47:34;2.03;;;0.40;;
66761;SDS011;53672;48.176;16.338;2023-12-22T17:52:36;2.87;;;0.50;;
66761;SDS011;53672;48.176;16.338;2023-12-22T17:57:37;2.67;;;0.50;;
66761;SDS011;53672;48.176;16.338;2023-12-22T18:02:40;1.92;;;0.40;;
66761;SDS011;53672;48.176;16.338;2023-12-22T18:07:42;2.13;;;0.50;;
66761;SDS011;53672;48.176;16.338;2023-12-22T18:12:44;3.25;;;0.60;;
66761;SDS011;53672;48.176;16.338;2023-12-22T18:17:47;2.43;;;0.53;;
66761;SDS011;53672;48.176;16.338;2023-12-22T18:22:49;3.20;;;0.50;;
66761;SDS011;53672;48.176;16.338;2023-12-22T18:27:50;4.43;;;0.70;;
66761;SDS011;53672;48.176;16.338;2023-12-22T18:32:53;3.03;;;0.60;;
66761;SDS011;53672;48.176;16.338;2023-12-22T18:37:55;3.63;;;0.70;;
66761;SDS011;53672;48.176;16.338;2023-12-22T18:42:57;2.33;;;0.80;;
66761;SDS011;53672;48.176;16.338;2023-12-22T18:47:59;2.80;;;0.50;;
66761;SDS011;53672;48.176;16.338;2023-12-22T18:53:01;2.55;;;0.70;;
66761;SDS011;53672;48.176;16.338;2023-12-22T18:58:03;2.45;;;0.50;;
66761;SDS011;53672;48.176;16.338;2023-12-22T19:03:07;2.03;;;0.50;;
66761;SDS011;53672;48.176;16.338;2023-12-22T19:08:08;2.50;;;0.50;;
66761;SDS011;53672;48.176;16.338;2023-12-22T19:13:10;4.68;;;1.60;;
66761;SDS011;53672;48.176;16.338;2023-12-22T19:18:14;2.67;;;0.60;;
66761;SDS011;53672;48.176;16.338;2023-12-22T19:23:15;1.80;;;0.40;;
66761;SDS011;53672;48.176;16.338;2023-12-22T19:28:17;3.20;;;0.70;;
66761;SDS011;53672;48.176;16.338;2023-12-22T19:33:20;3.20;;;0.53;;
66761;SDS011;53672;48.176;16.338;2023-12-22T19:38:22;4.38;;;0.60;;
66761;SDS011;53672;48.176;16.338;2023-12-22T19:43:23;3.83;;;0.57;;
66761;SDS011;53672;48.176;16.338;2023-12-22T19:48:27;2.17;;;0.50;;
66761;SDS011;53672;48.176;16.338;2023-12-22T19:53:29;2.75;;;0.60;;
66761;SDS011;53672;48.176;16.338;2023-12-22T19:58:31;2.63;;;0.57;;
66761;SDS011;53672;48.176;16.338;2023-12-22T20:03:38;2.15;;;0.45;;
66761;SDS011;53672;48.176;16.338;2023-12-22T20:08:40;4.13;;;0.73;;
66761;SDS011;53672;48.176;16.338;2023-12-22T20:13:42;3.20;;;0.50;;
66761;SDS011;53672;48.176;16.338;2023-12-22T20:18:46;2.75;;;0.50;;
66761;SDS011;53672;48.176;16.338;2023-12-22T20:23:48;2.80;;;0.50;;
66761;SDS011;53672;48.176;16.338;2023-12-22T20:28:52;4.13;;;1.27;;
66761;SDS011;53672;48.176;16.338;2023-12-22T20:33:56;3.92;;;1.52;;
66761;SDS011;53672;48.176;16.338;2023-12-22T20:38:57;6.90;;;1.63;;
66761;SDS011;53672;48.176;16.338;2023-12-22T20:43:59;6.10;;;1.67;;
66761;SDS011;53672;48.176;16.338;2023-12-22T20:49:02;5.20;;;1.63;;
66761;SDS011;53672;48.176;16.338;2023-12-22T20:54:04;4.80;;;1.42;;
66761;SDS011;53672;48.176;16.338;2023-12-22T20:59:07;4.90;;;1.38;;
66761;SDS011;53672;48.176;16.338;2023-12-22T21:04:10;4.20;;;1.30;;
66761;SDS011;53672;48.176;16.338;2023-12-22T21:09:12;4.45;;;1.38;;
66761;SDS011;53672;48.176;16.338;2023-12-22T21:14:14;4.80;;;1.27;;
66761;SDS011;53672;48.176;16.338;2023-12-22T21:19:17;5.13;;;1.20;;
66761;SDS011;53672;48.176;16.338;2023-12-22T21:24:19;3.78;;;1.27;;
66761;SDS011;53672;48.176;16.338;2023-12-22T21:29:21;6.63;;;1.95;;
66761;SDS011;53672;48.176;16.338;2023-12-22T21:34:24;5.90;;;1.98;;
66761;SDS011;53672;48.176;16.338;2023-12-22T21:39:25;5.43;;;2.33;;
66761;SDS011;53672;48.176;16.338;2023-12-22T21:44:27;7.00;;;2.40;;
66761;SDS011;53672;48.176;16.338;2023-12-22T21:49:30;4.43;;;1.27;;
66761;SDS011;53672;48.176;16.338;2023-12-22T21:54:31;2.58;;;0.50;;
66761;SDS011;53672;48.176;16.338;2023-12-22T21:59:33;3.17;;;0.55;;
66761;SDS011;53672;48.176;16.338;2023-12-22T22:04:36;2.03;;;0.40;;
66761;SDS011;53672;48.176;16.338;2023-12-22T22:09:40;2.97;;;0.40;;
66761;SDS011;53672;48.176;16.338;2023-12-22T22:14:41;2.90;;;0.50;;
66761;SDS011;53672;48.176;16.338;2023-12-22T22:19:44;3.03;;;0.50;;
66761;SDS011;53672;48.176;16.338;2023-12-22T22:24:46;1.80;;;0.30;;
66761;SDS011;53672;48.176;16.338;2023-12-22T22:29:48;1.23;;;0.30;;
66761;SDS011;53672;48.176;16.338;2023-12-22T22:34:51;0.93;;;0.22;;
66761;SDS011;53672;48.176;16.338;2023-12-22T22:39:52;1.83;;;0.30;;
66761;SDS011;53672;48.176;16.338;2023-12-22T22:44:54;1.75;;;0.30;;
66761;SDS011;53672;48.176;16.338;2023-12-22T22:49:58;0.95;;;0.20;;
66761;SDS011;53672;48.176;16.338;2023-12-22T22:54:59;2.77;;;0.47;;
66761;SDS011;53672;48.176;16.338;2023-12-22T23:00:01;2.05;;;0.28;;
66761;SDS011;53672;48.176;16.338;2023-12-22T23:05:06;1.42;;;0.20;;
66761;SDS011;53672;48.176;16.338;2023-12-22T23:10:09;2.30;;;0.40;;
66761;SDS011;53672;48.176;16.338;2023-12-22T23:15:11;2.00;;;0.45;;
66761;SDS011;53672;48.176;16.338;2023-12-22T23:20:14;2.40;;;0.47;;
66761;SDS011;53672;48.176;16.338;2023-12-22T23:25:16;1.50;;;0.30;;
66761;SDS011;53672;48.176;16.338;2023-12-22T23:30:18;1.42;;;0.30;;
66761;SDS011;53672;48.176;16.338;2023-12-22T23:35:21;1.90;;;0.45;;
66761;SDS011;53672;48.176;16.338;2023-12-22T23:40:22;1.83;;;0.28;;
66761;SDS011;53672;48.176;16.338;2023-12-22T23:45:24;1.70;;;0.40;;
66761;SDS011;53672;48.176;16.338;2023-12-22T23:50:27;1.55;;;0.30;;
66761;SDS011;53672;48.176;16.338;2023-12-22T23:55:28;2.45;;;0.63;;
